createdAt,value
2022-12-01T00:01:07.449Z,22.38
2022-12-01T00:03:34.154Z,21.25
2022-12-01T00:06:05.763Z,22.20
2022-12-01T00:08:33.303Z,23.42
2022-12-01T00:11:11.506Z,23.55
2022-12-01T00:13:38.125Z,24.13
2022-12-01T00:16:14.933Z,22.60
2022-12-01T00:18:42.229Z,23.55
2022-12-01T00:21:16.328Z,25.17
2022-12-01T00:23:47.580Z,22.60
2022-12-01T00:26:18.392Z,25.73
2022-12-01T00:28:49.423Z,22.60
2022-12-01T00:31:16.047Z,24.83
2022-12-01T00:33:42.607Z,26.35
2022-12-01T00:36:09.668Z,25.10
2022-12-01T00:38:36.414Z,23.67
2022-12-01T00:41:03.472Z,25.45
2022-12-01T00:43:30.030Z,26.95
2022-12-01T00:45:56.677Z,22.60
2022-12-01T00:48:23.308Z,24.25
2022-12-01T00:50:53.480Z,20.42
2022-12-01T00:53:20.208Z,22.23
2022-12-01T00:55:46.719Z,23.17
2022-12-01T00:58:13.235Z,21.20
2022-12-01T01:00:39.757Z,24.02
2022-12-01T01:03:07.306Z,23.20
2022-12-01T01:05:42.257Z,23.05
2022-12-01T01:08:10.635Z,24.80
2022-12-01T01:10:45.980Z,24.70
2022-12-01T01:13:13.910Z,22.88
2022-12-01T01:15:41.100Z,25.33
2022-12-01T01:18:07.743Z,24.15
2022-12-01T01:20:34.257Z,23.90
2022-12-01T01:23:00.796Z,24.63
2022-12-01T01:25:27.319Z,24.02
2022-12-01T01:27:53.937Z,25.20
2022-12-01T01:30:21.082Z,25.67
2022-12-01T01:32:47.744Z,24.73
2022-12-01T01:35:14.243Z,26.60
2022-12-01T01:37:40.747Z,26.27
2022-12-01T01:40:07.847Z,28.05
2022-12-01T01:42:34.345Z,29.55
2022-12-01T01:45:00.846Z,26.90
2022-12-01T01:47:33.366Z,30.95
2022-12-01T01:50:03.659Z,30.80
2022-12-01T01:52:30.181Z,30.88
2022-12-01T01:54:56.778Z,31.67
2022-12-01T01:57:28.003Z,30.88
2022-12-01T01:59:59.095Z,28.17
2022-12-01T02:02:25.784Z,29.73
2022-12-01T02:04:56.866Z,30.52
2022-12-01T02:07:23.853Z,27.10
2022-12-01T02:09:50.602Z,26.73
2022-12-01T02:12:38.488Z,27.77
2022-12-01T02:15:23.467Z,29.17
2022-12-01T02:18:03.429Z,27.08
2022-12-01T02:20:43.729Z,27.52
2022-12-01T02:23:20.342Z,24.17
2022-12-01T02:26:14.293Z,27.30
2022-12-01T02:28:57.741Z,25.48
2022-12-01T02:31:44.137Z,25.75
2022-12-01T02:34:24.341Z,25.52
2022-12-01T02:36:58.708Z,23.27
2022-12-01T02:39:29.491Z,23.80
2022-12-01T02:42:04.478Z,23.85
2022-12-01T02:44:37.669Z,25.38
2022-12-01T02:47:10.460Z,23.23
2022-12-01T02:49:41.462Z,24.23
2022-12-01T02:52:08.773Z,22.55
2022-12-01T02:54:35.629Z,22.42
2022-12-01T02:57:02.142Z,22.83
2022-12-01T02:59:28.673Z,23.60
2022-12-01T03:02:06.424Z,24.55
2022-12-01T03:04:42.025Z,23.00
2022-12-01T03:07:42.578Z,20.92
2022-12-01T03:12:37.462Z,21.50
2022-12-01T03:15:18.610Z,22.05
2022-12-01T03:18:01.982Z,22.83
2022-12-01T03:20:39.587Z,22.05
2022-12-01T03:23:09.680Z,21.65
2022-12-01T03:25:38.190Z,21.05
2022-12-01T03:28:21.958Z,19.88
2022-12-01T03:30:51.000Z,20.92
2022-12-01T03:33:24.780Z,19.83
2022-12-01T03:36:00.783Z,20.95
2022-12-01T03:38:28.464Z,19.13
2022-12-01T03:41:08.174Z,19.05
2022-12-01T03:43:38.887Z,17.63
2022-12-01T03:46:46.117Z,19.05
2022-12-01T03:49:14.129Z,18.30
2022-12-01T03:51:48.198Z,18.50
2022-12-01T03:54:53.055Z,17.20
2022-12-01T03:57:37.868Z,19.10
2022-12-01T04:00:05.887Z,17.85
2022-12-01T04:02:32.599Z,18.38
2022-12-01T04:04:59.219Z,17.83
2022-12-01T04:07:25.777Z,17.38
2022-12-01T04:09:52.331Z,19.10
2022-12-01T04:12:18.958Z,18.23
2022-12-01T04:14:58.000Z,18.75
2022-12-01T04:17:25.743Z,19.45
2022-12-01T04:19:52.703Z,20.08
2022-12-01T04:22:19.880Z,17.40
2022-12-01T04:24:46.405Z,18.50
2022-12-01T04:27:13.254Z,18.98
2022-12-01T04:29:39.779Z,21.83
2022-12-01T04:32:06.446Z,17.38
2022-12-01T04:34:33.266Z,17.20
2022-12-01T04:36:59.750Z,16.58
2022-12-01T04:39:26.274Z,14.32
2022-12-01T04:41:53.091Z,16.45
2022-12-01T04:44:19.691Z,15.30
2022-12-01T04:46:46.359Z,15.60
2022-12-01T04:49:12.955Z,16.08
2022-12-01T04:51:39.626Z,15.80
2022-12-01T04:54:06.129Z,15.57
2022-12-01T04:56:32.849Z,15.77
2022-12-01T04:58:59.435Z,17.27
2022-12-01T05:01:26.052Z,16.05
2022-12-01T05:03:52.715Z,17.35
2022-12-01T05:06:21.795Z,15.52
2022-12-01T05:08:48.795Z,15.40
2022-12-01T05:11:15.922Z,15.90
2022-12-01T05:13:44.439Z,15.65
2022-12-01T05:16:16.648Z,17.17
2022-12-01T05:18:43.855Z,16.92
2022-12-01T05:21:11.120Z,16.10
2022-12-01T05:23:38.213Z,16.38
2022-12-01T05:26:09.048Z,17.92
2022-12-01T05:28:36.143Z,16.67
2022-12-01T05:31:03.216Z,17.30
2022-12-01T05:33:30.422Z,15.63
2022-12-01T05:35:57.006Z,17.80
2022-12-01T05:38:23.662Z,17.17
2022-12-01T05:40:51.414Z,17.20
2022-12-01T05:43:18.367Z,18.25
2022-12-01T05:45:44.950Z,17.17
2022-12-01T05:48:11.497Z,17.88
2022-12-01T05:50:39.102Z,19.38
2022-12-01T05:53:06.642Z,16.00
2022-12-01T05:55:34.563Z,15.98
2022-12-01T05:58:01.625Z,16.25
2022-12-01T06:00:28.696Z,18.55
2022-12-01T06:02:55.485Z,16.65
2022-12-01T06:05:21.994Z,17.20
2022-12-01T06:07:48.689Z,16.33
2022-12-01T06:10:15.777Z,15.35
2022-12-01T06:12:42.306Z,15.40
2022-12-01T06:15:10.655Z,16.55
2022-12-01T06:17:40.453Z,15.75
2022-12-01T06:20:08.373Z,15.35
2022-12-01T06:22:34.871Z,14.98
2022-12-01T06:25:01.487Z,14.98
2022-12-01T06:27:28.103Z,12.52
2022-12-01T06:29:54.696Z,13.80
2022-12-01T06:32:21.229Z,13.50
2022-12-01T06:34:47.747Z,12.95
2022-12-01T06:37:14.260Z,14.63
2022-12-01T06:39:41.082Z,14.98
2022-12-01T06:42:07.573Z,13.73
2022-12-01T06:44:34.346Z,15.07
2022-12-01T06:47:00.861Z,14.60
2022-12-01T06:49:27.342Z,16.27
2022-12-01T06:51:53.848Z,15.15
2022-12-01T06:54:20.447Z,16.58
2022-12-01T06:56:46.958Z,15.75
2022-12-01T06:59:16.066Z,20.42
2022-12-01T07:01:43.284Z,17.10
2022-12-01T07:04:09.810Z,18.85
2022-12-01T07:06:36.449Z,17.70
2022-12-01T07:09:02.945Z,17.67
2022-12-01T07:11:29.459Z,17.67
2022-12-01T07:13:56.017Z,18.23
2022-12-01T07:16:22.723Z,17.25
2022-12-01T07:18:49.264Z,18.83
2022-12-01T07:21:15.903Z,16.52
2022-12-01T07:23:43.346Z,16.60
2022-12-01T07:26:15.373Z,16.05
2022-12-01T07:28:43.557Z,16.35
2022-12-01T07:31:16.452Z,15.38
2022-12-01T07:33:49.664Z,14.82
2022-12-01T07:36:16.204Z,15.35
2022-12-01T07:38:42.794Z,16.27
2022-12-01T07:41:11.301Z,15.43
2022-12-01T07:43:38.364Z,16.65
2022-12-01T07:46:07.848Z,17.15
2022-12-01T07:48:35.443Z,15.38
2022-12-01T07:51:02.240Z,18.65
2022-12-01T07:53:28.799Z,15.57
2022-12-01T07:55:55.485Z,15.05
2022-12-01T07:58:22.059Z,16.48
2022-12-01T08:00:48.572Z,18.15
2022-12-01T08:03:15.147Z,16.98
2022-12-01T08:05:41.651Z,16.77
2022-12-01T08:08:08.307Z,14.05
2022-12-01T08:10:35.147Z,18.45
2022-12-01T08:13:01.625Z,15.52
2022-12-01T08:15:28.405Z,15.68
2022-12-01T08:17:55.051Z,13.52
2022-12-01T08:20:24.068Z,14.65
2022-12-01T08:22:50.813Z,13.85
2022-12-01T08:25:17.344Z,15.80
2022-12-01T08:27:44.037Z,13.98
2022-12-01T08:30:10.941Z,14.18
2022-12-01T08:32:37.494Z,13.38
2022-12-01T08:35:04.250Z,14.00
2022-12-01T08:37:30.826Z,15.63
2022-12-01T08:39:57.306Z,15.73
2022-12-01T08:42:24.082Z,14.75
2022-12-01T08:44:53.851Z,13.45
2022-12-01T08:47:22.036Z,14.07
2022-12-01T08:49:48.787Z,12.70
2022-12-01T08:52:15.391Z,12.93
2022-12-01T08:54:41.931Z,13.43
2022-12-01T08:57:08.458Z,12.65
2022-12-01T08:59:35.050Z,12.65
2022-12-01T09:02:06.806Z,12.90
2022-12-01T09:04:33.834Z,13.60
2022-12-01T09:07:00.325Z,16.27
2022-12-01T09:09:28.783Z,14.18
2022-12-01T09:11:55.899Z,12.55
2022-12-01T09:14:23.144Z,12.82
2022-12-01T09:16:50.548Z,12.40
2022-12-01T09:19:24.035Z,13.13
2022-12-01T09:21:51.762Z,12.75
2022-12-01T09:24:18.398Z,12.57
2022-12-01T09:26:44.929Z,10.20
2022-12-01T09:29:13.683Z,10.32
2022-12-01T09:31:40.888Z,10.73
2022-12-01T09:34:12.213Z,12.68
2022-12-01T09:36:39.004Z,12.35
2022-12-01T09:39:07.240Z,10.75
2022-12-01T09:41:49.121Z,12.65
2022-12-01T09:44:23.135Z,11.55
2022-12-01T09:46:54.796Z,12.25
2022-12-01T09:49:30.364Z,11.80
2022-12-01T09:51:59.800Z,10.20
2022-12-01T09:54:28.721Z,12.18
2022-12-01T09:56:55.617Z,12.68
2022-12-01T09:59:24.929Z,13.93
2022-12-01T10:01:55.325Z,14.65
2022-12-01T10:07:18.287Z,13.52
2022-12-01T10:12:18.176Z,13.77
2022-12-01T10:14:48.643Z,12.23
2022-12-01T10:17:27.852Z,13.23
2022-12-01T10:20:23.549Z,12.73
2022-12-01T10:23:12.737Z,15.30
2022-12-01T10:25:56.311Z,12.07
2022-12-01T10:28:34.775Z,12.70
2022-12-01T10:31:14.287Z,13.35
2022-12-01T10:33:51.365Z,12.75
2022-12-01T10:36:17.934Z,13.18
2022-12-01T10:38:44.626Z,13.82
2022-12-01T10:41:14.578Z,13.77
2022-12-01T10:43:44.723Z,13.88
2022-12-01T10:46:40.444Z,13.98
2022-12-01T10:49:09.731Z,15.77
2022-12-01T10:51:57.054Z,15.80
2022-12-01T10:54:32.765Z,18.38
2022-12-01T10:56:59.732Z,13.48
2022-12-01T10:59:33.326Z,17.50
2022-12-01T11:02:01.368Z,16.13
2022-12-01T11:04:43.734Z,16.65
2022-12-01T11:07:16.350Z,16.58
2022-12-01T11:09:45.405Z,16.50
2022-12-01T11:12:16.923Z,15.50
2022-12-01T11:14:50.895Z,17.13
2022-12-01T11:17:40.688Z,16.70
2022-12-01T11:20:32.209Z,15.95
2022-12-01T11:23:20.413Z,17.02
2022-12-01T11:26:15.517Z,17.48
2022-12-01T11:28:54.930Z,15.38
2022-12-01T11:31:24.360Z,16.60
2022-12-01T11:33:55.262Z,16.60
2022-12-01T11:36:30.701Z,15.98
2022-12-01T11:39:01.627Z,17.70
2022-12-01T11:41:32.940Z,16.15
2022-12-01T11:44:02.173Z,19.23
2022-12-01T11:46:36.345Z,17.50
2022-12-01T11:49:03.811Z,17.63
2022-12-01T11:51:32.636Z,18.27
2022-12-01T11:54:11.485Z,16.60
2022-12-01T11:56:38.197Z,16.40
2022-12-01T11:59:17.546Z,17.55
2022-12-01T12:01:47.038Z,18.58
2022-12-01T12:04:29.650Z,17.02
2022-12-01T12:07:21.121Z,16.65
2022-12-01T12:10:11.014Z,17.13
2022-12-01T12:12:50.084Z,19.70
2022-12-01T12:16:04.891Z,18.48
2022-12-01T12:18:59.090Z,19.60
2022-12-01T12:21:38.537Z,18.73
2022-12-01T12:24:21.165Z,20.95
2022-12-01T12:26:56.550Z,17.60
2022-12-01T12:29:38.709Z,17.08
2022-12-01T12:32:14.379Z,18.08
2022-12-01T12:34:49.046Z,21.02
2022-12-01T12:37:24.990Z,19.13
2022-12-01T12:40:26.946Z,19.17
2022-12-01T12:43:34.853Z,20.17
2022-12-01T12:46:04.519Z,17.75
2022-12-01T12:49:18.786Z,17.95
2022-12-01T12:51:54.608Z,17.77
2022-12-01T12:54:32.505Z,17.48
2022-12-01T12:57:03.323Z,18.60
2022-12-01T12:59:47.038Z,17.90
2022-12-01T13:02:32.171Z,16.80
2022-12-01T13:05:02.947Z,16.40
2022-12-01T13:07:34.208Z,17.67
2022-12-01T13:10:09.240Z,17.58
2022-12-01T13:12:40.418Z,18.80
2022-12-01T13:15:15.615Z,19.23
2022-12-01T13:17:45.657Z,16.38
2022-12-01T13:20:17.943Z,18.20
2022-12-01T13:22:45.222Z,18.42
2022-12-01T13:25:25.601Z,16.67
2022-12-01T13:30:24.233Z,16.92
2022-12-01T13:32:58.552Z,18.08
2022-12-01T13:35:31.780Z,18.15
2022-12-01T13:38:32.036Z,18.27
2022-12-01T13:41:36.538Z,18.67
2022-12-01T13:44:08.598Z,18.75
2022-12-01T13:46:44.206Z,16.70
2022-12-01T13:49:33.535Z,18.40
2022-12-01T13:52:21.652Z,19.02
2022-12-01T13:55:07.067Z,17.35
2022-12-01T13:57:36.223Z,18.58
2022-12-01T14:00:02.937Z,17.13
2022-12-01T14:02:38.520Z,19.40
2022-12-01T14:05:40.765Z,18.10
2022-12-01T14:08:24.396Z,19.10
2022-12-01T14:10:54.135Z,17.98
2022-12-01T14:13:21.298Z,19.63
2022-12-01T14:15:55.177Z,17.95
2022-12-01T14:18:21.633Z,17.92
2022-12-01T14:20:48.760Z,19.08
2022-12-01T14:24:02.063Z,20.65
2022-12-01T14:26:31.063Z,20.23
2022-12-01T14:29:09.506Z,21.33
2022-12-01T14:31:36.465Z,19.95
2022-12-01T14:34:23.345Z,19.58
2022-12-01T14:37:14.038Z,19.63
2022-12-01T14:39:45.043Z,16.33
2022-12-01T14:42:11.514Z,18.77
2022-12-01T14:44:44.650Z,21.02
2022-12-01T14:47:11.089Z,20.98
2022-12-01T14:49:42.345Z,20.77
2022-12-01T14:52:26.400Z,20.20
2022-12-01T14:54:55.442Z,20.75
2022-12-01T14:57:25.889Z,18.85
2022-12-01T15:00:04.483Z,19.98
2022-12-01T15:02:31.135Z,22.58
2022-12-01T15:05:15.774Z,20.75
2022-12-01T15:07:46.084Z,18.65
2022-12-01T15:10:20.137Z,18.03
2022-12-01T15:12:47.591Z,19.88
2022-12-01T15:15:23.683Z,20.33
2022-12-01T15:17:52.098Z,19.65
2022-12-01T15:20:36.996Z,21.48
2022-12-01T15:23:14.390Z,22.52
2022-12-01T15:25:45.116Z,21.35
2022-12-01T15:28:32.775Z,23.00
2022-12-01T15:31:00.472Z,19.30
2022-12-01T15:33:36.585Z,20.70
2022-12-01T15:36:04.278Z,21.10
2022-12-01T15:38:35.852Z,24.02
2022-12-01T15:43:56.217Z,22.23
2022-12-01T15:46:31.550Z,20.60
2022-12-01T15:49:09.100Z,22.77
2022-12-01T15:51:35.826Z,20.13
2022-12-01T15:54:02.874Z,21.23
2022-12-01T15:56:38.237Z,21.65
2022-12-01T15:59:13.986Z,22.83
2022-12-01T16:01:42.265Z,22.52
2022-12-01T16:04:29.669Z,23.40
2022-12-01T16:07:05.884Z,20.05
2022-12-01T16:09:38.430Z,22.67
2022-12-01T16:12:16.909Z,25.35
2022-12-01T16:15:01.398Z,23.98
2022-12-01T16:17:42.048Z,22.15
2022-12-01T16:22:47.337Z,23.10
2022-12-01T16:25:28.673Z,21.88
2022-12-01T16:27:56.639Z,22.27
2022-12-01T16:30:26.047Z,25.23
2022-12-01T16:33:00.875Z,22.52
2022-12-01T16:35:29.606Z,27.75
2022-12-01T16:37:57.333Z,22.75
2022-12-01T16:40:24.838Z,25.38
2022-12-01T16:42:51.550Z,27.70
2022-12-01T16:45:19.010Z,24.67
2022-12-01T16:47:46.983Z,25.30
2022-12-01T16:50:18.197Z,25.63
2022-12-01T16:52:45.542Z,27.02
2022-12-01T16:55:24.505Z,29.10
2022-12-01T16:57:51.196Z,27.67
2022-12-01T17:00:18.070Z,28.02
2022-12-01T17:02:44.753Z,29.02
2022-12-01T17:05:11.558Z,26.48
2022-12-01T17:07:38.342Z,27.08
2022-12-01T17:10:07.720Z,24.40
2022-12-01T17:12:34.238Z,27.20
2022-12-01T17:15:00.774Z,27.00
2022-12-01T17:17:28.786Z,28.90
2022-12-01T17:19:55.618Z,25.52
2022-12-01T17:22:22.162Z,27.63
2022-12-01T17:24:49.173Z,28.30
2022-12-01T17:27:16.091Z,29.65
2022-12-01T17:29:46.042Z,25.02
2022-12-01T17:34:39.943Z,27.65
2022-12-01T17:37:06.655Z,30.40
2022-12-01T17:39:33.246Z,35.13
2022-12-01T17:41:59.804Z,29.73
2022-12-01T17:44:26.348Z,28.23
2022-12-01T17:46:52.945Z,29.85
2022-12-01T17:49:19.585Z,29.05
2022-12-01T17:51:46.173Z,29.42
2022-12-01T17:54:12.803Z,27.10
2022-12-01T17:56:39.338Z,29.23
2022-12-01T17:59:05.932Z,32.90
2022-12-01T18:01:32.700Z,28.60
2022-12-01T18:03:59.319Z,28.35
2022-12-01T18:06:26.208Z,28.48
2022-12-01T18:08:53.110Z,26.45
2022-12-01T18:11:19.845Z,26.58
2022-12-01T18:13:48.469Z,27.38
2022-12-01T18:16:18.413Z,26.13
2022-12-01T18:18:45.779Z,30.23
2022-12-01T18:21:13.963Z,28.42
2022-12-01T18:23:40.889Z,26.88
2022-12-01T18:26:15.735Z,27.52
2022-12-01T18:28:43.261Z,29.25
2022-12-01T18:31:12.869Z,26.27
2022-12-01T18:33:41.600Z,29.02
2022-12-01T18:36:13.874Z,25.63
2022-12-01T18:38:41.078Z,27.27
2022-12-01T18:41:08.082Z,31.40
2022-12-01T18:43:34.822Z,26.33
2022-12-01T18:46:03.313Z,28.98
2022-12-01T18:48:37.875Z,27.58
2022-12-01T18:51:05.993Z,29.95
2022-12-01T18:53:35.064Z,26.42
2022-12-01T18:56:03.339Z,27.48
2022-12-01T18:58:57.923Z,27.60
2022-12-01T19:01:36.035Z,27.08
2022-12-01T19:04:03.094Z,25.05
2022-12-01T19:06:30.077Z,24.40
2022-12-01T19:08:59.542Z,30.08
2022-12-01T19:11:26.083Z,29.80
2022-12-01T19:13:52.559Z,30.55
2022-12-01T19:16:19.805Z,27.73
2022-12-01T19:18:46.695Z,26.55
2022-12-01T19:21:16.017Z,26.80
2022-12-01T19:23:43.078Z,30.63
2022-12-01T19:26:15.541Z,25.58
2022-12-01T19:28:42.411Z,25.70
2022-12-01T19:31:10.668Z,27.45
2022-12-01T19:33:37.208Z,25.75
2022-12-01T19:36:09.309Z,25.30
2022-12-01T19:38:36.022Z,26.30
2022-12-01T19:41:03.395Z,26.98
2022-12-01T19:43:29.957Z,29.63
2022-12-01T19:45:56.545Z,27.92
2022-12-01T19:48:23.217Z,27.23
2022-12-01T19:50:49.758Z,25.95
2022-12-01T19:53:16.293Z,28.33
2022-12-01T19:55:43.056Z,25.95
2022-12-01T19:58:09.569Z,28.30
2022-12-01T20:00:36.251Z,26.02
2022-12-01T20:03:02.804Z,27.83
2022-12-01T20:05:29.378Z,24.55
2022-12-01T20:07:56.006Z,31.38
2022-12-01T20:10:22.560Z,29.13
2022-12-01T20:12:50.014Z,83.53
2022-12-01T20:15:16.982Z,31.77
2022-12-01T20:17:43.690Z,28.10
2022-12-01T20:20:11.627Z,27.10
2022-12-01T20:22:38.365Z,24.50
2022-12-01T20:25:05.728Z,27.50
2022-12-01T20:27:32.589Z,27.40
2022-12-01T20:29:59.237Z,24.23
2022-12-01T20:32:25.864Z,26.02
2022-12-01T20:34:55.206Z,27.65
2022-12-01T20:37:25.472Z,27.40
2022-12-01T20:42:18.645Z,25.02
2022-12-01T20:44:45.146Z,26.70
2022-12-01T20:47:14.214Z,26.30
2022-12-01T20:49:40.805Z,28.83
2022-12-01T20:52:07.407Z,27.35
2022-12-01T20:54:33.995Z,24.10
2022-12-01T20:57:00.541Z,29.85
2022-12-01T20:59:27.979Z,29.60
2022-12-01T21:01:54.815Z,26.05
2022-12-01T21:04:21.376Z,27.30
2022-12-01T21:06:47.940Z,26.95
2022-12-01T21:09:14.445Z,30.15
2022-12-01T21:11:49.670Z,27.70
2022-12-01T21:14:20.065Z,26.38
2022-12-01T21:16:47.654Z,26.33
2022-12-01T21:19:18.201Z,28.45
2022-12-01T21:24:14.451Z,24.27
2022-12-01T21:26:42.909Z,26.10
2022-12-01T21:29:23.682Z,26.75
2022-12-01T21:31:53.340Z,27.10
2022-12-01T21:34:27.936Z,26.67
2022-12-01T21:36:56.465Z,25.25
2022-12-01T21:39:25.004Z,27.40
2022-12-01T21:41:55.425Z,24.23
2022-12-01T21:44:23.162Z,27.03
2022-12-01T21:46:56.525Z,25.73
2022-12-01T21:49:32.645Z,24.75
2022-12-01T21:51:59.183Z,25.65
2022-12-01T21:54:25.695Z,25.05
2022-12-01T21:56:55.106Z,27.70
2022-12-01T21:59:22.989Z,26.45
2022-12-01T22:01:53.924Z,24.30
2022-12-01T22:04:30.645Z,24.67
2022-12-01T22:06:57.925Z,26.30
2022-12-01T22:09:31.254Z,25.55
2022-12-01T22:12:01.951Z,23.67
2022-12-01T22:14:37.831Z,26.02
2022-12-01T22:17:07.332Z,24.65
2022-12-01T22:19:37.101Z,24.63
2022-12-01T22:22:23.379Z,26.38
2022-12-01T22:24:52.675Z,23.33
2022-12-01T22:27:28.947Z,25.05
2022-12-01T22:30:05.826Z,22.40
2022-12-01T22:32:35.247Z,23.75
2022-12-01T22:35:17.745Z,21.17
2022-12-01T22:37:46.421Z,24.42
2022-12-01T22:41:01.877Z,22.65
2022-12-01T22:43:48.493Z,22.80
2022-12-01T22:46:27.242Z,23.40
2022-12-01T22:48:56.660Z,23.20
2022-12-01T22:51:30.795Z,20.95
2022-12-01T22:54:00.587Z,22.40
2022-12-01T22:56:39.853Z,20.88
2022-12-01T22:59:16.672Z,21.88
2022-12-01T23:01:59.841Z,20.02
2022-12-01T23:04:51.278Z,22.90
2022-12-01T23:07:35.248Z,20.65
2022-12-01T23:10:16.722Z,21.60
2022-12-01T23:12:45.117Z,19.38
2022-12-01T23:15:33.738Z,19.38
2022-12-01T23:18:29.447Z,20.85
2022-12-01T23:21:05.138Z,18.70
2022-12-01T23:23:36.936Z,23.10
2022-12-01T23:26:08.569Z,22.25
2022-12-01T23:28:35.958Z,22.50
2022-12-01T23:31:02.732Z,21.23
2022-12-01T23:33:31.790Z,23.63
2022-12-01T23:36:09.001Z,23.23
2022-12-01T23:38:42.525Z,24.42
2022-12-01T23:41:25.868Z,21.45
2022-12-01T23:43:54.231Z,22.65
2022-12-01T23:46:23.563Z,24.92
2022-12-01T23:48:59.339Z,23.00
2022-12-01T23:51:40.322Z,21.67
2022-12-01T23:54:17.651Z,23.55
2022-12-01T23:56:54.735Z,22.15
2022-12-01T23:59:32.222Z,22.15
